Time;durP1;ratioP1;P1;durP2;ratioP2;P2;SDS_P1;SDS_P2;PMS_P1;PMS_P2;Temp;Humidity;BMP_temperature;BMP_pressure;BME280_temperature;BME280_humidity;BME280_pressure;Samples;Min_cycle;Max_cycle;Signal;HPM_P1;HPM_P2
2021/08/28 00:01:37;;;;;;;24.70;10.32;;;13.30;99.90;;;;;;4190916;28;20047;-75
2021/08/28 00:03:37;;;;;;;22.85;10.48;;;13.30;99.90;;;;;;4191411;28;20048;-75
2021/08/28 00:05:38;;;;;;;20.90;9.85;;;13.20;99.90;;;;;;4212115;28;20547;-74
2021/08/28 00:07:39;;;;;;;17.92;10.98;;;13.30;99.90;;;;;;4192347;28;20361;-74
2021/08/28 00:09:39;;;;;;;24.83;11.95;;;13.20;99.90;;;;;;4205216;28;20487;-75
2021/08/28 00:11:40;;;;;;;31.00;11.45;;;13.10;99.90;;;;;;4210590;28;20024;-75
2021/08/28 00:13:43;;;;;;;23.90;12.38;;;13.10;99.90;;;;;;4206514;28;20653;-74
2021/08/28 00:15:43;;;;;;;26.65;11.82;;;13.10;99.90;;;;;;4211659;28;20472;-75
2021/08/28 00:17:45;;;;;;;28.17;12.05;;;13.10;99.90;;;;;;4204721;28;20052;-75
2021/08/28 00:19:46;;;;;;;21.15;11.55;;;13.10;99.90;;;;;;4211113;28;20055;-75
2021/08/28 00:21:47;;;;;;;24.40;12.18;;;13.20;99.90;;;;;;4207352;28;20502;-76
2021/08/28 00:23:47;;;;;;;19.98;11.90;;;13.20;99.90;;;;;;4210316;28;20551;-74
2021/08/28 00:25:48;;;;;;;20.60;11.68;;;13.20;99.90;;;;;;4190580;28;20113;-75
2021/08/28 00:27:48;;;;;;;24.60;12.27;;;13.30;99.90;;;;;;4191847;28;20039;-75
2021/08/28 00:29:49;;;;;;;24.67;11.77;;;13.40;99.90;;;;;;4208243;28;20040;-75
2021/08/28 00:31:50;;;;;;;20.88;12.18;;;13.50;99.90;;;;;;4195063;28;20380;-74
2021/08/28 00:33:50;;;;;;;20.25;11.90;;;13.60;99.90;;;;;;4211474;28;20039;-74
2021/08/28 00:35:51;;;;;;;24.60;12.40;;;13.70;99.90;;;;;;4193221;28;20037;-74
2021/08/28 00:37:52;;;;;;;22.15;11.32;;;13.80;99.90;;;;;;4193579;28;20033;-74
2021/08/28 00:39:52;;;;;;;27.40;11.70;;;13.80;99.90;;;;;;4204222;28;20070;-74
2021/08/28 00:41:53;;;;;;;25.75;11.95;;;13.80;99.90;;;;;;4195139;28;20131;-74
2021/08/28 00:43:54;;;;;;;19.65;11.05;;;13.80;99.90;;;;;;4194396;28;20560;-75
2021/08/28 00:45:59;;;;;;;19.50;10.60;;;13.80;99.90;;;;;;4211595;28;20024;-73
2021/08/28 00:48:05;;;;;;;23.10;10.93;;;13.80;99.90;;;;;;4211252;28;20040;-74
2021/08/28 00:50:06;;;;;;;18.65;10.82;;;13.90;99.90;;;;;;4205607;28;20028;-74
2021/08/28 00:52:07;;;;;;;19.13;10.80;;;13.90;99.90;;;;;;4193562;28;20491;-75
2021/08/28 00:54:08;;;;;;;20.27;11.27;;;13.90;99.90;;;;;;4209391;28;20029;-75
2021/08/28 00:56:10;;;;;;;23.38;10.57;;;14.00;99.90;;;;;;4211197;28;20039;-76
2021/08/28 00:58:11;;;;;;;21.98;11.40;;;14.00;99.90;;;;;;4208482;28;20057;-74
2021/08/28 01:00:11;;;;;;;22.15;10.18;;;14.10;99.90;;;;;;4192445;28;20028;-74
2021/08/28 01:02:13;;;;;;;27.27;11.93;;;14.00;99.90;;;;;;4191722;28;20086;-74
2021/08/28 01:04:18;;;;;;;23.85;10.65;;;14.00;99.90;;;;;;4211962;28;20032;-73
2021/08/28 01:06:35;;;;;;;22.75;11.25;;;14.10;99.90;;;;;;4209923;28;20107;-74
2021/08/28 01:08:44;;;;;;;21.25;10.88;;;14.10;99.90;;;;;;4211029;28;20036;-74
2021/08/28 01:10:53;;;;;;;22.20;10.75;;;14.20;99.90;;;;;;4205301;28;20033;-74
2021/08/28 01:12:59;;;;;;;20.40;10.65;;;14.20;99.90;;;;;;4205307;28;20444;-74
2021/08/28 01:15:04;;;;;;;16.75;9.55;;;14.20;99.90;;;;;;4192384;28;20032;-75
2021/08/28 01:17:08;;;;;;;20.63;10.38;;;14.20;99.90;;;;;;4204907;28;20024;-75
2021/08/28 01:19:16;;;;;;;21.02;10.77;;;14.20;99.90;;;;;;4211203;28;20031;-75
2021/08/28 01:21:30;;;;;;;22.90;10.40;;;14.20;99.90;;;;;;4208256;28;20032;-74
2021/08/28 01:23:34;;;;;;;26.30;10.50;;;14.20;99.90;;;;;;4209885;28;20399;-74
2021/08/28 01:25:35;;;;;;;20.73;10.77;;;14.30;99.90;;;;;;4209959;28;20407;-75
2021/08/28 01:27:45;;;;;;;24.52;10.88;;;14.30;99.90;;;;;;4211626;28;20036;-74
2021/08/28 01:29:48;;;;;;;27.48;11.88;;;14.30;99.90;;;;;;4209029;28;20031;-75
2021/08/28 01:31:51;;;;;;;22.52;10.63;;;14.30;99.90;;;;;;4193668;28;20481;-74
2021/08/28 01:33:52;;;;;;;22.52;11.68;;;14.30;99.90;;;;;;4211326;28;20028;-74
2021/08/28 01:35:54;;;;;;;18.20;10.25;;;14.40;99.90;;;;;;4211109;28;20036;-75
2021/08/28 01:37:56;;;;;;;18.25;9.73;;;14.40;99.90;;;;;;4193521;28;20094;-75
2021/08/28 01:40:02;;;;;;;27.83;10.60;;;14.40;99.90;;;;;;4206530;28;20540;-75
2021/08/28 01:42:04;;;;;;;27.50;10.30;;;14.50;99.90;;;;;;4209803;28;20085;-75
2021/08/28 01:44:12;;;;;;;20.85;8.90;;;14.50;99.90;;;;;;4189854;28;20037;-75
2021/08/28 01:46:13;;;;;;;18.63;9.23;;;14.50;99.90;;;;;;4211041;28;20020;-75
2021/08/28 01:48:15;;;;;;;23.83;10.98;;;14.60;99.90;;;;;;4208942;28;20028;-75
2021/08/28 01:50:19;;;;;;;18.42;9.48;;;14.60;99.90;;;;;;4211100;28;20020;-75
2021/08/28 01:52:21;;;;;;;16.17;9.80;;;14.60;99.90;;;;;;4208320;28;20157;-75
2021/08/28 01:54:21;;;;;;;18.83;10.23;;;14.60;99.90;;;;;;4206205;28;20109;-75
2021/08/28 01:56:23;;;;;;;18.70;9.02;;;14.60;99.90;;;;;;4210172;28;20044;-74
2021/08/28 01:58:28;;;;;;;18.02;10.52;;;14.70;99.90;;;;;;4206954;28;20491;-74
2021/08/28 02:00:29;;;;;;;18.58;9.98;;;14.70;99.90;;;;;;4208682;28;20044;-75
2021/08/28 02:02:29;;;;;;;28.42;9.73;;;14.80;99.90;;;;;;4197500;28;20442;-74
2021/08/28 02:04:30;;;;;;;29.83;10.45;;;14.80;99.90;;;;;;4213423;28;20028;-75
2021/08/28 02:06:37;;;;;;;20.08;9.73;;;14.80;99.90;;;;;;4212679;28;20128;-74
2021/08/28 02:08:47;;;;;;;19.70;9.55;;;14.90;99.90;;;;;;4193142;28;20040;-74
2021/08/28 02:10:54;;;;;;;19.73;9.23;;;14.80;99.90;;;;;;4207498;28;20032;-74
2021/08/28 02:13:01;;;;;;;24.05;10.07;;;14.90;99.90;;;;;;4197659;28;20028;-74
2021/08/28 02:15:19;;;;;;;20.95;9.18;;;14.90;99.90;;;;;;4213733;28;20406;-74
2021/08/28 02:17:23;;;;;;;16.05;9.20;;;15.00;99.90;;;;;;4195407;28;20503;-74
2021/08/28 02:19:31;;;;;;;21.13;10.73;;;15.00;99.90;;;;;;4213598;28;20127;-75
2021/08/28 02:21:34;;;;;;;19.63;9.80;;;15.00;99.90;;;;;;4208481;28;20056;-75
2021/08/28 02:24:06;;;;;;;19.27;9.13;;;15.00;99.90;;;;;;4191837;28;20426;-74
2021/08/28 02:26:19;;;;;;;19.65;9.57;;;15.00;99.90;;;;;;4212846;28;20020;-74
2021/08/28 02:28:33;;;;;;;20.00;9.57;;;15.10;99.90;;;;;;4195943;28;20589;-74
2021/08/28 02:30:34;;;;;;;20.42;8.80;;;15.10;99.90;;;;;;4208437;28;20376;-73
2021/08/28 02:32:36;;;;;;;19.00;8.93;;;15.20;99.90;;;;;;4212555;28;20059;-74
2021/08/28 02:34:38;;;;;;;23.23;8.63;;;15.20;99.90;;;;;;4194698;28;20088;-74
2021/08/28 02:36:41;;;;;;;15.57;8.13;;;15.20;99.90;;;;;;4205731;28;20071;-74
2021/08/28 02:38:43;;;;;;;;;;;15.20;99.90;;;;;;4211115;28;20278;-74
2021/08/28 02:40:47;;;;;;;16.25;8.13;;;15.20;99.90;;;;;;4206462;28;19919;-75
2021/08/28 02:42:48;;;;;;;19.20;7.95;;;15.30;99.90;;;;;;4208309;28;20084;-75
2021/08/28 02:44:49;;;;;;;24.98;8.73;;;15.30;99.90;;;;;;4195419;28;20047;-74
2021/08/28 02:46:53;;;;;;;20.55;8.95;;;15.30;99.90;;;;;;4178671;28;21038;-74
2021/08/28 02:48:54;;;;;;;;;;;15.30;99.90;;;;;;4175074;28;20042;-74
2021/08/28 02:50:57;;;;;;;17.55;7.47;;;15.30;99.90;;;;;;4177812;28;19912;-74
2021/08/28 02:52:59;;;;;;;17.77;7.75;;;15.30;99.90;;;;;;4196773;28;20033;-73
2021/08/28 02:55:02;;;;;;;14.83;8.20;;;15.30;99.90;;;;;;4175719;28;20576;-74
2021/08/28 02:57:04;;;;;;;16.03;8.20;;;15.40;99.90;;;;;;4177652;28;20033;-73
2021/08/28 02:59:05;;;;;;;17.38;8.75;;;15.40;99.90;;;;;;4178236;28;20025;-73
2021/08/28 03:01:07;;;;;;;18.92;8.63;;;15.50;99.90;;;;;;4196569;28;20679;-74
2021/08/28 03:03:11;;;;;;;22.10;7.65;;;15.50;99.90;;;;;;4179264;28;20033;-73
2021/08/28 03:05:12;;;;;;;12.20;7.88;;;15.50;99.90;;;;;;4179309;28;20120;-73
2021/08/28 03:07:13;;;;;;;17.85;8.70;;;15.50;99.90;;;;;;4177770;28;20043;-73
2021/08/28 03:09:16;;;;;;;19.30;8.23;;;15.50;99.90;;;;;;4179267;28;20061;-74
2021/08/28 03:11:19;;;;;;;17.23;7.22;;;15.50;99.90;;;;;;4179106;28;20033;-73
2021/08/28 03:13:21;;;;;;;14.82;7.75;;;15.50;99.90;;;;;;4178058;28;20041;-73
2021/08/28 03:15:22;;;;;;;12.48;8.02;;;15.40;99.90;;;;;;4180242;28;20045;-73
2021/08/28 03:17:23;;;;;;;16.55;8.63;;;15.50;99.90;;;;;;4171899;28;20429;-73
2021/08/28 03:19:26;;;;;;;17.92;8.50;;;15.40;99.90;;;;;;4179250;28;20064;-73
2021/08/28 03:21:29;;;;;;;14.20;7.38;;;15.50;99.90;;;;;;4175196;28;20028;-74
2021/08/28 03:23:31;;;;;;;17.10;9.25;;;15.50;99.90;;;;;;4179511;28;20400;-74
2021/08/28 03:25:32;;;;;;;19.80;8.13;;;15.40;99.90;;;;;;4174710;28;20060;-74
2021/08/28 03:27:35;;;;;;;10.90;8.15;;;15.50;99.90;;;;;;4180111;28;20040;-74
2021/08/28 03:29:36;;;;;;;13.90;8.85;;;15.50;99.90;;;;;;4176073;28;20437;-74
2021/08/28 03:31:37;;;;;;;22.20;9.65;;;15.40;99.90;;;;;;4180634;28;20495;-73
2021/08/28 03:33:38;;;;;;;16.75;7.75;;;15.40;99.90;;;;;;4175383;28;20040;-73
2021/08/28 03:35:40;;;;;;;14.18;7.57;;;15.40;99.90;;;;;;4181140;28;20039;-73
2021/08/28 03:37:41;;;;;;;14.25;8.00;;;15.40;99.90;;;;;;4177845;28;20374;-73
2021/08/28 03:39:42;;;;;;;16.92;7.60;;;15.40;99.90;;;;;;4172025;28;20048;-74
2021/08/28 03:41:44;;;;;;;18.85;8.68;;;15.40;99.90;;;;;;4177082;28;20499;-73
2021/08/28 03:43:45;;;;;;;20.48;9.25;;;15.30;99.90;;;;;;4186574;28;20037;-74
2021/08/28 03:45:49;;;;;;;17.13;8.48;;;15.20;99.90;;;;;;4195750;28;20487;-73
2021/08/28 03:47:50;;;;;;;17.17;8.10;;;15.20;99.90;;;;;;4190919;28;20087;-74
2021/08/28 03:49:50;;;;;;;13.93;8.40;;;15.20;99.90;;;;;;4195550;28;20029;-73
2021/08/28 03:51:51;;;;;;;16.42;8.48;;;15.20;99.90;;;;;;4190966;28;20094;-74
2021/08/28 03:53:52;;;;;;;16.88;8.65;;;15.10;99.90;;;;;;4195393;28;20040;-74
2021/08/28 03:55:52;;;;;;;15.13;7.70;;;15.20;99.90;;;;;;4195160;28;20395;-74
2021/08/28 03:57:53;;;;;;;15.43;8.85;;;15.20;99.90;;;;;;4202267;28;20123;-74
2021/08/28 03:59:53;;;;;;;15.35;7.57;;;15.30;99.90;;;;;;4211311;28;20086;-73
2021/08/28 04:01:54;;;;;;;13.55;7.95;;;;;;;;;;4193838;28;20086;-74
2021/08/28 04:03:55;;;;;;;15.68;7.85;;;15.20;99.90;;;;;;4191444;28;20032;-74
2021/08/28 04:05:55;;;;;;;15.98;7.97;;;15.20;99.90;;;;;;4194003;28;20554;-74
2021/08/28 04:07:56;;;;;;;18.75;8.80;;;15.30;99.90;;;;;;4195394;28;20508;-74
2021/08/28 04:09:57;;;;;;;14.77;8.23;;;15.30;99.90;;;;;;4194532;28;20442;-74
2021/08/28 04:11:57;;;;;;;15.25;8.02;;;15.30;99.90;;;;;;4195379;28;20036;-74
2021/08/28 04:13:58;;;;;;;17.30;8.20;;;15.40;99.90;;;;;;4196295;28;20467;-74
2021/08/28 04:15:59;;;;;;;13.75;7.65;;;15.50;99.90;;;;;;4189633;28;20041;-74
2021/08/28 04:17:59;;;;;;;11.18;6.82;;;15.50;99.90;;;;;;4196433;28;20043;-73
2021/08/28 04:20:00;;;;;;;12.88;7.75;;;15.50;99.90;;;;;;4190490;28;20408;-73
2021/08/28 04:22:00;;;;;;;11.52;6.47;;;15.50;99.90;;;;;;4192118;28;20043;-73
2021/08/28 04:24:01;;;;;;;9.30;7.22;;;15.50;99.90;;;;;;4186481;28;20373;-74
2021/08/28 04:26:02;;;;;;;10.20;6.20;;;15.50;99.90;;;;;;4193713;28;20033;-73
2021/08/28 04:28:02;;;;;;;11.00;6.38;;;15.50;99.90;;;;;;4190154;28;20028;-74
2021/08/28 04:30:05;;;;;;;12.10;7.30;;;15.60;99.90;;;;;;4196158;28;20025;-74
2021/08/28 04:32:06;;;;;;;13.68;7.55;;;15.50;99.90;;;;;;4192179;28;20037;-74
2021/08/28 04:34:06;;;;;;;10.38;6.82;;;15.40;99.90;;;;;;4188454;28;20064;-74
2021/08/28 04:36:07;;;;;;;9.68;6.40;;;15.40;99.90;;;;;;4193816;28;20040;-74
2021/08/28 04:38:08;;;;;;;8.10;6.03;;;15.30;99.90;;;;;;4194595;28;20395;-73
2021/08/28 04:40:10;;;;;;;11.38;6.38;;;15.30;99.90;;;;;;4194845;28;20063;-73
2021/08/28 04:42:10;;;;;;;11.10;6.22;;;15.20;99.90;;;;;;4183111;28;20083;-73
2021/08/28 04:44:11;;;;;;;9.00;6.43;;;15.20;99.90;;;;;;4205038;28;20081;-74
2021/08/28 04:46:11;;;;;;;9.88;6.70;;;15.20;99.90;;;;;;4207840;28;20066;-74
2021/08/28 04:48:12;;;;;;;12.48;6.18;;;15.30;99.90;;;;;;4210428;28;20503;-74
2021/08/28 04:50:13;;;;;;;8.13;6.00;;;15.30;99.90;;;;;;4210388;28;20028;-72
2021/08/28 04:52:13;;;;;;;12.23;6.75;;;15.30;99.90;;;;;;4192191;28;20029;-73
2021/08/28 04:54:14;;;;;;;10.48;6.13;;;15.20;99.90;;;;;;4209091;28;20063;-73
2021/08/28 04:56:15;;;;;;;10.75;6.53;;;15.20;99.90;;;;;;4210941;28;20111;-74
2021/08/28 04:58:15;;;;;;;9.63;6.72;;;15.20;99.90;;;;;;4192946;28;20043;-73
2021/08/28 05:00:17;;;;;;;11.27;6.50;;;15.20;99.90;;;;;;4211224;28;20024;-73
2021/08/28 05:02:17;;;;;;;10.48;7.47;;;15.20;99.90;;;;;;4206128;28;20067;-73
2021/08/28 05:04:18;;;;;;;10.98;6.80;;;15.20;99.90;;;;;;4208810;28;20028;-73
2021/08/28 05:06:18;;;;;;;11.35;7.32;;;15.20;99.90;;;;;;4192918;28;20051;-74
2021/08/28 05:08:20;;;;;;;10.63;6.97;;;15.20;99.90;;;;;;4188594;28;20515;-74
2021/08/28 05:10:21;;;;;;;12.50;6.68;;;15.30;99.90;;;;;;4210998;28;20028;-74
2021/08/28 05:12:22;;;;;;;8.32;6.50;;;15.40;99.90;;;;;;4209739;28;20040;-74
2021/08/28 05:14:23;;;;;;;8.50;7.15;;;15.40;99.90;;;;;;4205805;28;20061;-74
2021/08/28 05:16:24;;;;;;;13.18;6.88;;;15.50;99.90;;;;;;4211930;28;20070;-75
2021/08/28 05:18:24;;;;;;;9.10;7.35;;;15.50;99.90;;;;;;4206475;28;20120;-75
2021/08/28 05:20:25;;;;;;;12.40;7.70;;;15.40;99.90;;;;;;4193024;28;20468;-75
2021/08/28 05:22:25;;;;;;;14.63;7.32;;;15.50;99.90;;;;;;4191444;28;20116;-74
2021/08/28 05:24:26;;;;;;;11.23;7.47;;;15.40;99.90;;;;;;4211929;28;20395;-74
2021/08/28 05:26:26;;;;;;;16.40;7.00;;;15.40;99.90;;;;;;4208824;28;20059;-74
2021/08/28 05:28:27;;;;;;;16.17;7.47;;;15.50;99.90;;;;;;4204410;28;20115;-74
2021/08/28 05:30:28;;;;;;;11.27;6.93;;;15.50;99.90;;;;;;4210027;28;20032;-73
2021/08/28 05:32:28;;;;;;;11.25;6.22;;;15.60;99.90;;;;;;4210137;28;20587;-74
2021/08/28 05:34:29;;;;;;;9.35;7.30;;;15.50;99.90;;;;;;4210177;28;20059;-73
2021/08/28 05:36:29;;;;;;;13.38;6.97;;;15.50;99.90;;;;;;4206732;28;20052;-73
2021/08/28 05:38:30;;;;;;;13.02;7.18;;;15.50;99.90;;;;;;4192345;28;20099;-74
2021/08/28 05:40:31;;;;;;;13.95;7.47;;;15.40;99.90;;;;;;4206934;28;20054;-73
2021/08/28 05:42:31;;;;;;;11.95;7.90;;;15.30;99.90;;;;;;4207972;28;20131;-74
2021/08/28 05:44:32;;;;;;;16.55;8.10;;;15.30;99.90;;;;;;4210560;28;20047;-74
2021/08/28 05:46:32;;;;;;;9.68;7.20;;;15.30;99.90;;;;;;4191350;28;20041;-73
2021/08/28 05:48:33;;;;;;;10.13;7.90;;;15.30;99.90;;;;;;4192818;28;20055;-74
2021/08/28 05:50:34;;;;;;;13.48;8.40;;;15.40;99.90;;;;;;4210132;28;20123;-74
2021/08/28 05:52:34;;;;;;;15.40;7.75;;;15.40;99.90;;;;;;4192737;28;20095;-73
2021/08/28 05:54:35;;;;;;;12.15;8.20;;;15.40;99.90;;;;;;4205627;28;20036;-74
2021/08/28 05:56:36;;;;;;;11.40;7.15;;;15.50;99.90;;;;;;4204628;28;20424;-74
2021/08/28 05:58:36;;;;;;;11.38;7.45;;;15.60;99.90;;;;;;4211145;28;20036;-74
2021/08/28 06:00:37;;;;;;;15.98;7.60;;;15.70;99.90;;;;;;4186271;28;20033;-74
2021/08/28 06:02:38;;;;;;;13.95;7.45;;;15.80;99.90;;;;;;4207737;28;20040;-73
2021/08/28 06:04:39;;;;;;;14.75;6.97;;;15.90;99.90;;;;;;4206692;28;20340;-74
2021/08/28 06:06:40;;;;;;;17.05;7.72;;;15.90;99.90;;;;;;4212167;28;20036;-74
2021/08/28 06:08:40;;;;;;;11.13;6.75;;;16.00;99.90;;;;;;4191921;28;20033;-74
2021/08/28 06:10:41;;;;;;;13.35;6.97;;;16.10;99.90;;;;;;4211151;28;20080;-74
2021/08/28 06:12:42;;;;;;;10.90;6.55;;;16.20;99.90;;;;;;4209412;28;20028;-73
2021/08/28 06:14:43;;;;;;;12.13;6.18;;;16.20;99.90;;;;;;4210364;28;20442;-73
2021/08/28 06:16:43;;;;;;;15.18;6.38;;;16.40;99.90;;;;;;4209747;28;20062;-73
2021/08/28 06:18:44;;;;;;;10.07;6.60;;;16.50;99.90;;;;;;4194117;28;20040;-73
2021/08/28 06:20:44;;;;;;;13.90;6.68;;;16.60;99.90;;;;;;4208711;28;20496;-74
2021/08/28 06:22:45;;;;;;;10.63;5.63;;;16.70;99.90;;;;;;4183120;28;20052;-73
2021/08/28 06:24:45;;;;;;;14.55;6.10;;;16.80;99.90;;;;;;4209798;28;20020;-73
2021/08/28 06:26:46;;;;;;;8.57;6.43;;;16.90;99.90;;;;;;4194785;28;20512;-73
2021/08/28 06:28:47;;;;;;;15.75;7.05;;;16.90;99.90;;;;;;4209650;28;20036;-74
2021/08/28 06:30:48;;;;;;;11.32;7.07;;;16.90;99.90;;;;;;4191794;28;20476;-74
2021/08/28 06:32:48;;;;;;;12.93;7.22;;;16.90;99.90;;;;;;4190819;28;20480;-73
2021/08/28 06:34:49;;;;;;;14.23;6.57;;;16.90;99.90;;;;;;4210449;28;20048;-74
2021/08/28 06:36:49;;;;;;;11.65;6.65;;;16.90;99.90;;;;;;4209558;28;20471;-74
2021/08/28 06:38:50;;;;;;;10.20;6.40;;;17.00;99.90;;;;;;4203253;28;20379;-74
2021/08/28 06:40:51;;;;;;;10.13;6.70;;;17.00;99.90;;;;;;4207046;28;20025;-73
2021/08/28 06:42:51;;;;;;;12.52;6.25;;;17.10;99.90;;;;;;4186899;28;20048;-73
2021/08/28 06:44:52;;;;;;;12.25;6.88;;;17.20;99.90;;;;;;4175346;28;20111;-73
2021/08/28 06:46:52;;;;;;;14.25;7.57;;;17.30;99.90;;;;;;4170972;28;20045;-73
2021/08/28 06:48:53;;;;;;;14.02;7.05;;;17.30;99.90;;;;;;4178351;28;20043;-73
2021/08/28 06:50:55;;;;;;;13.18;6.97;;;17.30;99.90;;;;;;4176497;28;20420;-72
2021/08/28 06:52:55;;;;;;;15.25;8.02;;;17.40;99.90;;;;;;4178311;28;20096;-74
2021/08/28 06:54:56;;;;;;;14.60;6.60;;;17.40;99.90;;;;;;4177717;28;20040;-74
2021/08/28 06:56:56;;;;;;;16.02;7.25;;;17.40;99.90;;;;;;4179345;28;20372;-73
2021/08/28 06:58:57;;;;;;;14.48;6.80;;;17.50;99.90;;;;;;4172309;28;20037;-75
2021/08/28 07:00:57;;;;;;;12.05;6.40;;;17.50;99.90;;;;;;4179918;28;20041;-74
2021/08/28 07:02:58;;;;;;;19.20;7.80;;;17.50;99.90;;;;;;4178157;28;20408;-74
2021/08/28 07:04:58;;;;;;;8.18;6.05;;;17.60;99.90;;;;;;4177208;28;20401;-74
2021/08/28 07:06:59;;;;;;;18.58;7.03;;;17.60;99.90;;;;;;4173997;28;20041;-75
2021/08/28 07:09:02;;;;;;;10.25;6.22;;;17.60;99.90;;;;;;4178613;28;20492;-75
2021/08/28 07:11:03;;;;;;;12.13;6.47;;;17.70;99.90;;;;;;4172163;28;20065;-75
2021/08/28 07:13:03;;;;;;;12.75;7.05;;;17.80;99.90;;;;;;4177516;28;20472;-75
2021/08/28 07:15:04;;;;;;;12.75;6.95;;;17.90;99.90;;;;;;4175899;28;20091;-74
2021/08/28 07:17:05;;;;;;;10.63;6.57;;;17.90;99.90;;;;;;4179195;28;20029;-74
2021/08/28 07:19:06;;;;;;;12.07;7.25;;;17.90;99.90;;;;;;4176722;28;20040;-75
2021/08/28 07:21:06;;;;;;;11.05;7.53;;;18.10;99.90;;;;;;4176291;28;20031;-74
2021/08/28 07:23:07;;;;;;;17.30;7.20;;;18.20;99.90;;;;;;4160002;28;20087;-74
2021/08/28 07:25:08;;;;;;;14.27;6.68;;;18.40;99.90;;;;;;4173307;28;20065;-74
2021/08/28 07:27:09;;;;;;;12.90;7.28;;;18.60;99.90;;;;;;4178067;28;20542;-74
2021/08/28 07:29:10;;;;;;;14.57;7.40;;;18.70;99.90;;;;;;4176136;28;20044;-74
2021/08/28 07:31:11;;;;;;;13.50;6.45;;;18.70;99.90;;;;;;4178034;28;20459;-75
2021/08/28 07:33:11;;;;;;;17.65;7.55;;;18.60;99.90;;;;;;4180136;28;20058;-74
2021/08/28 07:35:12;;;;;;;12.38;5.82;;;18.60;99.90;;;;;;4178286;28;20053;-75
2021/08/28 07:37:13;;;;;;;12.55;6.78;;;18.50;99.90;;;;;;4171536;28;20037;-75
2021/08/28 07:39:13;;;;;;;14.98;6.32;;;18.40;99.90;;;;;;4178203;28;20032;-75
2021/08/28 07:41:14;;;;;;;12.30;6.50;;;18.40;99.90;;;;;;4173795;28;20053;-75
2021/08/28 07:43:15;;;;;;;9.68;5.88;;;18.40;99.90;;;;;;4184353;28;20056;-73
2021/08/28 07:45:15;;;;;;;9.23;5.97;;;18.40;99.90;;;;;;4213431;28;20097;-74
2021/08/28 07:47:16;;;;;;;9.60;5.85;;;18.40;99.90;;;;;;4212221;28;20123;-75
2021/08/28 07:49:16;;;;;;;8.23;5.25;;;18.40;99.90;;;;;;4208050;28;20518;-75
2021/08/28 07:51:17;;;;;;;12.13;7.93;;;18.40;99.90;;;;;;4211454;28;20067;-74
2021/08/28 07:53:17;;;;;;;11.48;5.82;;;18.40;99.90;;;;;;4209299;28;20483;-74
2021/08/28 07:55:18;;;;;;;12.38;5.82;;;18.40;99.90;;;;;;4211781;28;20035;-75
2021/08/28 07:57:18;;;;;;;12.68;5.60;;;18.60;99.90;;;;;;4192896;28;20029;-75
2021/08/28 07:59:19;;;;;;;11.10;6.05;;;18.60;99.90;;;;;;4210630;28;20044;-74
2021/08/28 08:01:20;;;;;;;9.98;5.57;;;18.80;99.90;;;;;;4211486;28;20491;-74
2021/08/28 08:03:20;;;;;;;9.38;5.97;;;18.90;99.90;;;;;;4194140;28;20048;-74
2021/08/28 08:05:21;;;;;;;11.10;6.20;;;19.10;99.90;;;;;;4212477;28;20406;-74
2021/08/28 08:07:22;;;;;;;9.07;6.00;;;19.20;99.90;;;;;;4203025;28;20036;-74
2021/08/28 08:09:22;;;;;;;12.15;6.15;;;19.40;99.90;;;;;;4210848;28;20039;-74
2021/08/28 08:11:23;;;;;;;10.18;5.65;;;19.60;99.90;;;;;;4206676;28;20032;-73
2021/08/28 08:13:23;;;;;;;10.13;5.82;;;19.60;99.90;;;;;;4188799;28;20032;-74
2021/08/28 08:15:24;;;;;;;9.18;5.53;;;19.80;99.90;;;;;;4211260;28;20024;-73
2021/08/28 08:17:25;;;;;;;8.38;6.00;;;20.00;99.90;;;;;;4188508;28;20589;-73
2021/08/28 08:19:25;;;;;;;7.10;5.65;;;20.10;99.90;;;;;;4192932;28;20028;-75
2021/08/28 08:21:26;;;;;;;10.25;6.38;;;20.30;99.90;;;;;;4187925;28;20048;-74
2021/08/28 08:23:27;;;;;;;8.88;5.82;;;20.50;99.90;;;;;;4211488;28;20020;-75
2021/08/28 08:25:27;;;;;;;8.43;5.40;;;20.70;99.90;;;;;;4209635;28;20036;-73
2021/08/28 08:27:28;;;;;;;10.50;5.82;;;20.80;99.90;;;;;;4195331;28;20408;-75
2021/08/28 08:29:29;;;;;;;8.85;5.57;;;20.80;99.90;;;;;;4211729;28;20040;-75
2021/08/28 08:31:29;;;;;;;7.75;5.72;;;20.80;99.90;;;;;;4212366;28;20043;-75
2021/08/28 08:33:30;;;;;;;11.57;5.85;;;20.70;99.90;;;;;;4211106;28;20467;-73
2021/08/28 08:35:31;;;;;;;12.38;5.85;;;20.70;99.90;;;;;;4193396;28;20064;-76
2021/08/28 08:37:31;;;;;;;10.60;6.72;;;20.60;99.90;;;;;;4208233;28;20123;-75
2021/08/28 08:39:32;;;;;;;11.90;6.72;;;20.40;99.90;;;;;;4201297;28;20040;-73
2021/08/28 08:41:34;;;;;;;11.63;6.68;;;20.40;99.90;;;;;;4210967;28;20055;-75
2021/08/28 08:43:35;;;;;;;11.15;6.65;;;20.40;99.90;;;;;;4212426;28;20536;-75
2021/08/28 08:45:35;;;;;;;8.95;6.00;;;20.50;99.90;;;;;;4211730;28;20036;-74
2021/08/28 08:47:37;;;;;;;12.23;6.25;;;20.70;99.90;;;;;;4188023;28;20029;-75
2021/08/28 08:49:38;;;;;;;9.10;6.05;;;20.50;99.90;;;;;;4194175;28;20505;-75
2021/08/28 08:51:41;;;;;;;9.52;5.95;;;20.50;99.90;;;;;;4205776;28;20042;-75
2021/08/28 08:53:42;;;;;;;;;;;20.40;99.90;;;;;;4209369;28;20209;-75
2021/08/28 08:55:43;;;;;;;10.63;6.50;;;20.50;99.90;;;;;;4211809;28;19919;-75
2021/08/28 08:57:45;;;;;;;11.23;5.80;;;20.60;99.90;;;;;;4210922;28;20067;-73
2021/08/28 08:59:46;;;;;;;13.48;5.53;;;20.60;99.90;;;;;;4190008;28;20163;-74
2021/08/28 09:01:47;;;;;;;9.65;6.03;;;20.40;99.90;;;;;;4210457;28;20044;-75
2021/08/28 09:03:48;;;;;;;10.02;6.85;;;20.40;99.90;;;;;;4192635;28;20032;-75
2021/08/28 09:05:48;;;;;;;10.50;5.35;;;20.40;99.90;;;;;;4203844;28;20051;-75
2021/08/28 09:07:49;;;;;;;9.18;5.85;;;20.50;99.90;;;;;;4210077;28;20106;-74
2021/08/28 09:09:49;;;;;;;11.63;5.90;;;20.60;99.90;;;;;;4206177;28;20451;-74
2021/08/28 09:12:01;;;;;;;7.97;5.90;;;20.70;99.90;;;;;;4211326;28;20070;-75
2021/08/28 09:14:20;;;;;;;8.48;5.47;;;20.70;99.90;;;;;;4207676;28;20491;-75
2021/08/28 09:16:32;;;;;;;10.52;6.28;;;20.60;99.90;;;;;;4209429;28;20031;-75
2021/08/28 09:18:52;;;;;;;11.38;6.63;;;20.60;99.90;;;;;;4206582;28;20048;-75
2021/08/28 09:20:58;;;;;;;6.90;5.15;;;20.70;99.90;;;;;;4204663;28;20036;-76
2021/08/28 09:23:08;;;;;;;8.68;6.28;;;21.10;99.90;;;;;;4206111;28;20028;-75
2021/08/28 09:25:09;;;;;;;15.02;5.97;;;21.60;99.90;;;;;;4189568;28;20051;-76
2021/08/28 09:27:10;;;;;;;7.82;5.68;;;22.10;99.90;;;;;;4207623;28;20028;-75
2021/08/28 09:29:15;;;;;;;10.07;5.50;;;22.20;99.90;;;;;;4193361;28;20041;-76
2021/08/28 09:31:15;;;;;;;8.82;6.30;;;21.90;99.90;;;;;;4192016;28;20032;-75
2021/08/28 09:33:23;;;;;;;8.80;6.03;;;21.50;99.90;;;;;;4211502;28;20032;-75
2021/08/28 09:35:31;;;;;;;7.43;5.65;;;21.10;99.90;;;;;;4209692;28;20040;-75
2021/08/28 09:37:31;;;;;;;9.60;6.32;;;20.90;99.90;;;;;;4209520;28;20448;-75
2021/08/28 09:39:39;;;;;;;12.07;5.97;;;20.60;99.90;;;;;;4190410;28;20071;-75
2021/08/28 09:41:40;;;;;;;8.90;6.68;;;20.30;99.90;;;;;;4206300;28;20040;-76
2021/08/28 09:43:40;;;;;;;8.80;6.40;;;20.20;99.90;;;;;;4209404;28;20032;-75
2021/08/28 09:45:42;;;;;;;8.30;6.50;;;20.10;99.90;;;;;;4211729;28;20036;-75
2021/08/28 09:47:44;;;;;;;9.35;6.43;;;20.30;99.90;;;;;;4209362;28;20032;-75
2021/08/28 09:49:47;;;;;;;8.10;5.43;;;20.60;99.90;;;;;;4189818;28;20061;-75
2021/08/28 09:51:48;;;;;;;;;;;21.00;99.90;;;;;;4209302;28;20036;-75
2021/08/28 09:53:59;;;;;;;6.85;5.07;;;21.40;99.90;;;;;;4192850;28;19940;-75
2021/08/28 09:56:02;;;;;;;6.55;5.60;;;21.70;99.90;;;;;;4210803;28;20128;-74
2021/08/28 09:58:04;;;;;;;7.35;6.28;;;21.70;99.90;;;;;;4192794;28;20032;-74
2021/08/28 10:00:07;;;;;;;8.63;6.10;;;21.60;99.90;;;;;;4209444;28;20028;-75
2021/08/28 10:02:11;;;;;;;8.85;5.72;;;21.40;99.90;;;;;;4193220;28;20041;-75
2021/08/28 10:04:12;;;;;;;8.02;5.70;;;21.10;99.90;;;;;;4206689;28;20074;-75
2021/08/28 10:06:13;;;;;;;7.45;5.13;;;20.70;99.90;;;;;;4204951;28;20040;-75
2021/08/28 10:08:15;;;;;;;9.48;4.68;;;20.50;99.90;;;;;;4211366;28;20031;-74
2021/08/28 10:10:18;;;;;;;7.82;5.50;;;20.40;99.90;;;;;;4190547;28;20543;-74
2021/08/28 10:12:19;;;;;;;11.55;5.75;;;20.70;99.90;;;;;;4210684;28;20039;-75
2021/08/28 10:14:20;;;;;;;7.93;5.43;;;21.30;99.90;;;;;;4207753;28;20032;-74
2021/08/28 10:16:21;;;;;;;8.90;4.90;;;21.80;99.90;;;;;;4185226;28;20097;-75
2021/08/28 10:18:22;;;;;;;5.72;4.57;;;22.20;99.90;;;;;;4190984;28;20123;-75
2021/08/28 10:20:26;;;;;;;9.75;5.70;;;22.40;99.90;;;;;;4206984;28;20484;-75
2021/08/28 10:22:30;;;;;;;8.63;5.38;;;22.90;99.90;;;;;;4210236;28;20093;-74
2021/08/28 10:24:31;;;;;;;8.00;5.63;;;23.30;99.90;;;;;;4208380;28;20068;-74
2021/08/28 10:26:33;;;;;;;6.30;4.72;;;23.50;99.90;;;;;;4212526;28;20040;-74
2021/08/28 10:28:33;;;;;;;6.95;5.35;;;23.50;99.90;;;;;;4205564;28;20055;-75